sensor_id;sensor_type;location;lat;lon;timestamp;pressure;altitude;pressure_sealevel;temperature;humidity
61682;BME280;47577;43.610;25.010;2023-08-20T00:01:40;100544.16;;;21.96;72.59
61682;BME280;47577;43.610;25.010;2023-08-20T00:04:06;100545.75;;;21.87;72.55
61682;BME280;47577;43.610;25.010;2023-08-20T00:06:32;100542.06;;;21.88;72.63
61682;BME280;47577;43.610;25.010;2023-08-20T00:08:58;100538.81;;;21.61;73.05
61682;BME280;47577;43.610;25.010;2023-08-20T00:11:23;100548.91;;;21.59;72.93
61682;BME280;47577;43.610;25.010;2023-08-20T00:13:49;100537.97;;;21.71;72.47
61682;BME280;47577;43.610;25.010;2023-08-20T00:16:15;100545.16;;;21.84;71.33
61682;BME280;47577;43.610;25.010;2023-08-20T00:18:41;100539.63;;;21.97;71.00
61682;BME280;47577;43.610;25.010;2023-08-20T00:21:07;100547.63;;;22.09;71.08
61682;BME280;47577;43.610;25.010;2023-08-20T00:23:34;100546.88;;;22.07;70.89
61682;BME280;47577;43.610;25.010;2023-08-20T00:26:00;100542.09;;;22.11;70.97
61682;BME280;47577;43.610;25.010;2023-08-20T00:28:27;100534.69;;;22.02;71.71
61682;BME280;47577;43.610;25.010;2023-08-20T00:30:53;100541.19;;;21.99;72.00
61682;BME280;47577;43.610;25.010;2023-08-20T00:33:18;100540.47;;;21.97;71.90
61682;BME280;47577;43.610;25.010;2023-08-20T00:35:44;100529.75;;;21.96;71.60
61682;BME280;47577;43.610;25.010;2023-08-20T00:38:09;100539.75;;;22.06;71.75
61682;BME280;47577;43.610;25.010;2023-08-20T00:40:35;100538.97;;;22.04;72.38
61682;BME280;47577;43.610;25.010;2023-08-20T00:43:01;100539.75;;;22.06;73.08
61682;BME280;47577;43.610;25.010;2023-08-20T00:45:27;100544.78;;;22.11;73.39
61682;BME280;47577;43.610;25.010;2023-08-20T00:47:53;100546.50;;;22.01;72.71
61682;BME280;47577;43.610;25.010;2023-08-20T00:50:19;100537.28;;;21.92;72.07
61682;BME280;47577;43.610;25.010;2023-08-20T00:52:45;100543.41;;;21.94;71.90
61682;BME280;47577;43.610;25.010;2023-08-20T00:55:12;100545.53;;;22.02;72.94
61682;BME280;47577;43.610;25.010;2023-08-20T00:57:40;100560.16;;;22.10;72.58
61682;BME280;47577;43.610;25.010;2023-08-20T01:00:07;100560.28;;;22.20;72.01
61682;BME280;47577;43.610;25.010;2023-08-20T01:02:37;100567.06;;;22.15;72.83
61682;BME280;47577;43.610;25.010;2023-08-20T01:05:03;100563.75;;;22.11;72.68
61682;BME280;47577;43.610;25.010;2023-08-20T01:07:58;100554.50;;;22.02;72.73
61682;BME280;47577;43.610;25.010;2023-08-20T01:10:45;100560.91;;;22.01;73.45
61682;BME280;47577;43.610;25.010;2023-08-20T01:13:16;100556.69;;;21.86;73.80
61682;BME280;47577;43.610;25.010;2023-08-20T01:15:42;100557.91;;;21.82;73.69
61682;BME280;47577;43.610;25.010;2023-08-20T01:18:08;100562.00;;;21.87;74.22
61682;BME280;47577;43.610;25.010;2023-08-20T01:20:39;100562.22;;;21.84;74.55
61682;BME280;47577;43.610;25.010;2023-08-20T01:26:18;100574.03;;;21.83;74.53
61682;BME280;47577;43.610;25.010;2023-08-20T01:28:48;100572.78;;;21.76;74.57
61682;BME280;47577;43.610;25.010;2023-08-20T01:31:14;100582.38;;;21.69;74.71
61682;BME280;47577;43.610;25.010;2023-08-20T01:33:40;100588.78;;;21.68;74.98
61682;BME280;47577;43.610;25.010;2023-08-20T01:36:08;100581.84;;;21.64;74.63
61682;BME280;47577;43.610;25.010;2023-08-20T01:38:37;100583.09;;;21.60;74.91
61682;BME280;47577;43.610;25.010;2023-08-20T01:41:03;100575.31;;;21.55;74.76
61682;BME280;47577;43.610;25.010;2023-08-20T01:43:29;100576.66;;;21.49;75.07
61682;BME280;47577;43.610;25.010;2023-08-20T01:45:55;100586.50;;;21.50;74.61
61682;BME280;47577;43.610;25.010;2023-08-20T01:48:20;100576.53;;;21.51;74.97
61682;BME280;47577;43.610;25.010;2023-08-20T01:50:46;100578.50;;;21.49;74.92
61682;BME280;47577;43.610;25.010;2023-08-20T01:53:12;100575.03;;;21.47;74.97
61682;BME280;47577;43.610;25.010;2023-08-20T01:55:38;100576.34;;;21.41;74.90
61682;BME280;47577;43.610;25.010;2023-08-20T01:58:03;100585.66;;;21.50;74.52
61682;BME280;47577;43.610;25.010;2023-08-20T02:00:29;100588.78;;;21.44;75.28
61682;BME280;47577;43.610;25.010;2023-08-20T02:02:56;100590.53;;;21.45;75.05
61682;BME280;47577;43.610;25.010;2023-08-20T02:05:22;100586.06;;;21.44;75.00
61682;BME280;47577;43.610;25.010;2023-08-20T02:07:47;100586.31;;;21.41;76.02
61682;BME280;47577;43.610;25.010;2023-08-20T02:10:13;100584.19;;;21.33;75.01
61682;BME280;47577;43.610;25.010;2023-08-20T02:12:40;100580.84;;;21.29;75.76
61682;BME280;47577;43.610;25.010;2023-08-20T02:15:06;100594.16;;;21.32;75.30
61682;BME280;47577;43.610;25.010;2023-08-20T02:17:32;100587.88;;;21.32;75.53
61682;BME280;47577;43.610;25.010;2023-08-20T02:19:58;100592.53;;;21.30;75.42
61682;BME280;47577;43.610;25.010;2023-08-20T02:22:23;100596.34;;;21.27;76.39
61682;BME280;47577;43.610;25.010;2023-08-20T02:24:49;100586.59;;;21.25;76.82
61682;BME280;47577;43.610;25.010;2023-08-20T02:27:15;100586.78;;;21.34;75.69
61682;BME280;47577;43.610;25.010;2023-08-20T02:29:40;100598.69;;;21.32;76.65
61682;BME280;47577;43.610;25.010;2023-08-20T02:32:06;100593.00;;;21.24;76.68
61682;BME280;47577;43.610;25.010;2023-08-20T02:34:31;100591.41;;;21.21;77.03
61682;BME280;47577;43.610;25.010;2023-08-20T02:36:57;100590.78;;;21.17;76.06
61682;BME280;47577;43.610;25.010;2023-08-20T02:39:23;100594.09;;;21.21;77.18
61682;BME280;47577;43.610;25.010;2023-08-20T02:41:50;100599.56;;;21.32;76.05
61682;BME280;47577;43.610;25.010;2023-08-20T02:44:15;100583.91;;;21.25;77.11
61682;BME280;47577;43.610;25.010;2023-08-20T02:46:41;100583.84;;;21.13;76.34
61682;BME280;47577;43.610;25.010;2023-08-20T02:49:07;100591.91;;;21.26;77.31
61682;BME280;47577;43.610;25.010;2023-08-20T02:51:32;100583.97;;;21.12;77.69
61682;BME280;47577;43.610;25.010;2023-08-20T02:53:58;100591.13;;;21.13;77.18
61682;BME280;47577;43.610;25.010;2023-08-20T02:56:23;100590.66;;;21.19;77.28
61682;BME280;47577;43.610;25.010;2023-08-20T02:58:49;100592.13;;;21.23;77.67
61682;BME280;47577;43.610;25.010;2023-08-20T03:01:21;100602.31;;;21.19;77.25
61682;BME280;47577;43.610;25.010;2023-08-20T03:03:48;100598.38;;;21.12;78.02
61682;BME280;47577;43.610;25.010;2023-08-20T03:06:14;100596.53;;;21.13;77.29
61682;BME280;47577;43.610;25.010;2023-08-20T03:08:39;100584.56;;;21.04;78.35
61682;BME280;47577;43.610;25.010;2023-08-20T03:11:05;100598.47;;;21.11;77.81
61682;BME280;47577;43.610;25.010;2023-08-20T03:13:31;100608.19;;;21.13;77.78
61682;BME280;47577;43.610;25.010;2023-08-20T03:15:56;100597.19;;;21.04;77.66
61682;BME280;47577;43.610;25.010;2023-08-20T03:18:22;100608.91;;;21.04;77.53
61682;BME280;47577;43.610;25.010;2023-08-20T03:20:48;100597.09;;;21.05;78.38
61682;BME280;47577;43.610;25.010;2023-08-20T03:23:13;100611.16;;;20.97;78.20
61682;BME280;47577;43.610;25.010;2023-08-20T03:25:39;100618.41;;;20.97;78.27
61682;BME280;47577;43.610;25.010;2023-08-20T03:28:05;100616.16;;;20.91;78.90
61682;BME280;47577;43.610;25.010;2023-08-20T03:30:30;100603.47;;;20.80;78.66
61682;BME280;47577;43.610;25.010;2023-08-20T03:32:57;100610.53;;;20.94;79.31
61682;BME280;47577;43.610;25.010;2023-08-20T03:35:23;100607.31;;;20.89;78.84
61682;BME280;47577;43.610;25.010;2023-08-20T03:37:48;100602.03;;;20.87;78.90
61682;BME280;47577;43.610;25.010;2023-08-20T03:40:14;100602.09;;;20.98;78.77
61682;BME280;47577;43.610;25.010;2023-08-20T03:42:40;100610.94;;;21.00;78.74
61682;BME280;47577;43.610;25.010;2023-08-20T03:45:06;100612.28;;;20.95;79.44
61682;BME280;47577;43.610;25.010;2023-08-20T03:47:32;100609.13;;;21.01;79.07
61682;BME280;47577;43.610;25.010;2023-08-20T03:49:58;100610.25;;;21.10;78.80
61682;BME280;47577;43.610;25.010;2023-08-20T03:52:24;100610.16;;;21.11;78.39
61682;BME280;47577;43.610;25.010;2023-08-20T03:54:49;100612.63;;;21.14;78.78
61682;BME280;47577;43.610;25.010;2023-08-20T03:57:16;100612.84;;;21.11;78.74
61682;BME280;47577;43.610;25.010;2023-08-20T03:59:41;100609.63;;;21.06;78.85
61682;BME280;47577;43.610;25.010;2023-08-20T04:02:07;100603.56;;;21.15;78.04
61682;BME280;47577;43.610;25.010;2023-08-20T04:04:32;100609.25;;;21.24;78.16
61682;BME280;47577;43.610;25.010;2023-08-20T04:06:58;100605.19;;;21.29;77.97
61682;BME280;47577;43.610;25.010;2023-08-20T04:09:24;100602.25;;;21.32;78.04
61682;BME280;47577;43.610;25.010;2023-08-20T04:11:49;100603.63;;;21.38;77.62
61682;BME280;47577;43.610;25.010;2023-08-20T04:14:15;100603.59;;;21.51;77.12
61682;BME280;47577;43.610;25.010;2023-08-20T04:16:40;100606.22;;;21.64;76.91
61682;BME280;47577;43.610;25.010;2023-08-20T04:19:06;100597.16;;;21.76;76.21
61682;BME280;47577;43.610;25.010;2023-08-20T04:21:32;100598.78;;;21.79;76.29
61682;BME280;47577;43.610;25.010;2023-08-20T04:23:58;100603.09;;;21.92;75.79
61682;BME280;47577;43.610;25.010;2023-08-20T04:26:23;100607.53;;;22.05;75.90
61682;BME280;47577;43.610;25.010;2023-08-20T04:28:49;100615.19;;;22.22;74.82
61682;BME280;47577;43.610;25.010;2023-08-20T04:31:14;100613.38;;;22.34;74.47
61682;BME280;47577;43.610;25.010;2023-08-20T04:33:40;100606.84;;;22.48;74.84
61682;BME280;47577;43.610;25.010;2023-08-20T04:36:05;100607.72;;;22.60;73.45
61682;BME280;47577;43.610;25.010;2023-08-20T04:38:31;100613.97;;;22.72;74.26
61682;BME280;47577;43.610;25.010;2023-08-20T04:40:57;100617.03;;;22.78;73.12
61682;BME280;47577;43.610;25.010;2023-08-20T04:43:22;100612.31;;;22.92;73.00
61682;BME280;47577;43.610;25.010;2023-08-20T04:45:49;100618.59;;;23.04;72.29
61682;BME280;47577;43.610;25.010;2023-08-20T04:48:15;100623.28;;;23.13;71.90
61682;BME280;47577;43.610;25.010;2023-08-20T04:50:41;100622.53;;;23.11;72.77
61682;BME280;47577;43.610;25.010;2023-08-20T04:53:06;100620.94;;;23.20;71.98
61682;BME280;47577;43.610;25.010;2023-08-20T04:55:32;100626.78;;;23.36;71.27
61682;BME280;47577;43.610;25.010;2023-08-20T04:57:57;100621.56;;;23.44;71.43
61682;BME280;47577;43.610;25.010;2023-08-20T05:00:23;100621.53;;;23.55;70.61
61682;BME280;47577;43.610;25.010;2023-08-20T05:02:49;100628.94;;;23.74;70.58
61682;BME280;47577;43.610;25.010;2023-08-20T05:05:14;100625.09;;;23.77;70.81
61682;BME280;47577;43.610;25.010;2023-08-20T05:07:40;100623.09;;;23.90;69.91
61682;BME280;47577;43.610;25.010;2023-08-20T05:10:07;100610.84;;;23.96;69.59
61682;BME280;47577;43.610;25.010;2023-08-20T05:12:34;100609.88;;;24.07;69.87
61682;BME280;47577;43.610;25.010;2023-08-20T05:14:59;100619.38;;;24.13;67.86
61682;BME280;47577;43.610;25.010;2023-08-20T05:17:25;100616.56;;;24.24;71.31
61682;BME280;47577;43.610;25.010;2023-08-20T05:19:51;100614.34;;;24.39;68.78
61682;BME280;47577;43.610;25.010;2023-08-20T05:22:16;100617.19;;;24.37;67.36
61682;BME280;47577;43.610;25.010;2023-08-20T05:24:42;100631.09;;;24.44;66.90
61682;BME280;47577;43.610;25.010;2023-08-20T05:27:15;100627.84;;;24.50;67.70
61682;BME280;47577;43.610;25.010;2023-08-20T05:29:42;100630.94;;;24.67;67.21
61682;BME280;47577;43.610;25.010;2023-08-20T05:32:08;100628.09;;;24.78;66.15
61682;BME280;47577;43.610;25.010;2023-08-20T05:34:34;100633.13;;;24.82;65.80
61682;BME280;47577;43.610;25.010;2023-08-20T05:37:00;100630.41;;;24.82;65.39
61682;BME280;47577;43.610;25.010;2023-08-20T05:39:25;100633.88;;;24.94;64.48
61682;BME280;47577;43.610;25.010;2023-08-20T05:41:55;100631.75;;;24.98;64.84
61682;BME280;47577;43.610;25.010;2023-08-20T05:44:21;100635.91;;;25.12;62.76
61682;BME280;47577;43.610;25.010;2023-08-20T05:46:47;100633.22;;;25.22;62.39
61682;BME280;47577;43.610;25.010;2023-08-20T05:49:13;100635.69;;;25.34;60.83
61682;BME280;47577;43.610;25.010;2023-08-20T05:51:42;100636.84;;;25.51;61.44
61682;BME280;47577;43.610;25.010;2023-08-20T05:54:07;100637.56;;;25.53;62.16
61682;BME280;47577;43.610;25.010;2023-08-20T05:56:33;100632.41;;;25.60;61.86
61682;BME280;47577;43.610;25.010;2023-08-20T05:58:58;100643.56;;;25.67;61.62
61682;BME280;47577;43.610;25.010;2023-08-20T06:01:24;100643.16;;;25.71;61.36
61682;BME280;47577;43.610;25.010;2023-08-20T06:03:50;100638.41;;;25.83;60.78
61682;BME280;47577;43.610;25.010;2023-08-20T06:06:15;100638.66;;;25.90;60.86
61682;BME280;47577;43.610;25.010;2023-08-20T06:08:41;100631.53;;;25.89;60.46
61682;BME280;47577;43.610;25.010;2023-08-20T06:11:07;100641.56;;;26.08;57.27
61682;BME280;47577;43.610;25.010;2023-08-20T06:13:32;100636.66;;;26.12;54.50
61682;BME280;47577;43.610;25.010;2023-08-20T06:15:58;100634.19;;;26.28;52.55
61682;BME280;47577;43.610;25.010;2023-08-20T06:18:24;100635.69;;;26.50;50.22
61682;BME280;47577;43.610;25.010;2023-08-20T06:20:49;100629.94;;;26.53;52.90
61682;BME280;47577;43.610;25.010;2023-08-20T06:23:15;100639.06;;;26.72;55.05
61682;BME280;47577;43.610;25.010;2023-08-20T06:25:41;100628.09;;;26.81;54.45
61682;BME280;47577;43.610;25.010;2023-08-20T06:28:08;100628.88;;;26.92;52.95
61682;BME280;47577;43.610;25.010;2023-08-20T06:30:33;100640.88;;;27.09;50.61
61682;BME280;47577;43.610;25.010;2023-08-20T06:32:59;100636.94;;;27.11;50.12
61682;BME280;47577;43.610;25.010;2023-08-20T06:35:25;100638.16;;;27.27;51.98
61682;BME280;47577;43.610;25.010;2023-08-20T06:37:50;100636.88;;;27.49;51.06
61682;BME280;47577;43.610;25.010;2023-08-20T06:40:16;100644.63;;;27.62;51.14
61682;BME280;47577;43.610;25.010;2023-08-20T06:42:42;100640.03;;;27.80;51.52
61682;BME280;47577;43.610;25.010;2023-08-20T06:45:07;100635.31;;;27.90;50.61
61682;BME280;47577;43.610;25.010;2023-08-20T06:47:34;100650.00;;;28.07;48.75
61682;BME280;47577;43.610;25.010;2023-08-20T06:49:59;100646.28;;;28.17;49.68
61682;BME280;47577;43.610;25.010;2023-08-20T06:52:25;100655.63;;;28.32;51.01
61682;BME280;47577;43.610;25.010;2023-08-20T06:54:51;100640.50;;;28.46;49.41
61682;BME280;47577;43.610;25.010;2023-08-20T06:57:16;100655.47;;;28.60;48.83
61682;BME280;47577;43.610;25.010;2023-08-20T06:59:42;100651.50;;;28.54;48.29
61682;BME280;47577;43.610;25.010;2023-08-20T07:02:09;100653.59;;;28.60;46.84
61682;BME280;47577;43.610;25.010;2023-08-20T07:04:35;100648.88;;;28.71;47.84
61682;BME280;47577;43.610;25.010;2023-08-20T07:07:01;100655.91;;;28.81;49.25
61682;BME280;47577;43.610;25.010;2023-08-20T07:09:26;100655.56;;;28.85;49.75
61682;BME280;47577;43.610;25.010;2023-08-20T07:11:52;100658.34;;;28.93;47.85
61682;BME280;47577;43.610;25.010;2023-08-20T07:14:17;100652.22;;;29.07;48.29
61682;BME280;47577;43.610;25.010;2023-08-20T07:16:43;100668.03;;;29.22;48.69
61682;BME280;47577;43.610;25.010;2023-08-20T07:19:09;100657.28;;;29.36;48.18
61682;BME280;47577;43.610;25.010;2023-08-20T07:21:34;100659.53;;;29.41;48.29
61682;BME280;47577;43.610;25.010;2023-08-20T07:24:00;100665.56;;;29.53;47.91
61682;BME280;47577;43.610;25.010;2023-08-20T07:26:26;100658.84;;;29.56;45.67
61682;BME280;47577;43.610;25.010;2023-08-20T07:28:51;100661.09;;;29.60;47.19
61682;BME280;47577;43.610;25.010;2023-08-20T07:31:24;100656.13;;;29.64;46.10
61682;BME280;47577;43.610;25.010;2023-08-20T07:33:50;100667.75;;;29.66;46.12
61682;BME280;47577;43.610;25.010;2023-08-20T07:36:16;100667.47;;;29.85;46.56
61682;BME280;47577;43.610;25.010;2023-08-20T07:38:43;100653.06;;;29.83;45.16
61682;BME280;47577;43.610;25.010;2023-08-20T07:41:09;100666.09;;;29.89;45.98
61682;BME280;47577;43.610;25.010;2023-08-20T07:43:37;100660.44;;;29.99;45.10
61682;BME280;47577;43.610;25.010;2023-08-20T07:46:04;100662.50;;;29.97;46.09
61682;BME280;47577;43.610;25.010;2023-08-20T07:48:29;100652.53;;;30.04;45.95
61682;BME280;47577;43.610;25.010;2023-08-20T07:50:55;100661.44;;;30.23;46.27
61682;BME280;47577;43.610;25.010;2023-08-20T07:53:21;100643.44;;;30.20;44.04
61682;BME280;47577;43.610;25.010;2023-08-20T07:55:46;100663.81;;;30.34;43.74
61682;BME280;47577;43.610;25.010;2023-08-20T07:58:12;100663.50;;;30.37;44.02
61682;BME280;47577;43.610;25.010;2023-08-20T08:00:38;100667.75;;;30.32;44.86
61682;BME280;47577;43.610;25.010;2023-08-20T08:03:03;100661.59;;;30.46;44.97
61682;BME280;47577;43.610;25.010;2023-08-20T08:05:29;100664.97;;;30.56;43.83
61682;BME280;47577;43.610;25.010;2023-08-20T08:07:55;100663.88;;;30.74;43.28
61682;BME280;47577;43.610;25.010;2023-08-20T08:10:21;100665.94;;;30.80;43.40
61682;BME280;47577;43.610;25.010;2023-08-20T08:12:47;100666.91;;;30.87;43.56
61682;BME280;47577;43.610;25.010;2023-08-20T08:15:12;100649.06;;;30.91;42.80
61682;BME280;47577;43.610;25.010;2023-08-20T08:17:38;100664.69;;;30.91;43.26
61682;BME280;47577;43.610;25.010;2023-08-20T08:20:05;100654.09;;;30.79;42.79
61682;BME280;47577;43.610;25.010;2023-08-20T08:22:30;100659.03;;;30.92;44.08
61682;BME280;47577;43.610;25.010;2023-08-20T08:24:56;100656.88;;;31.11;42.94
61682;BME280;47577;43.610;25.010;2023-08-20T08:27:22;100647.28;;;31.15;44.04
61682;BME280;47577;43.610;25.010;2023-08-20T08:29:47;100659.00;;;31.32;43.99
61682;BME280;47577;43.610;25.010;2023-08-20T08:32:13;100642.38;;;31.25;41.01
61682;BME280;47577;43.610;25.010;2023-08-20T08:34:38;100658.75;;;31.42;44.62
61682;BME280;47577;43.610;25.010;2023-08-20T08:37:04;100649.31;;;31.44;40.48
61682;BME280;47577;43.610;25.010;2023-08-20T08:39:30;100654.22;;;31.57;41.36
61682;BME280;47577;43.610;25.010;2023-08-20T08:42:01;100658.84;;;31.57;41.91
61682;BME280;47577;43.610;25.010;2023-08-20T08:44:31;100663.44;;;31.64;40.44
61682;BME280;47577;43.610;25.010;2023-08-20T08:46:57;100657.91;;;31.41;39.46
61682;BME280;47577;43.610;25.010;2023-08-20T08:49:23;100661.16;;;31.68;40.39
61682;BME280;47577;43.610;25.010;2023-08-20T08:51:50;100656.13;;;31.71;39.26
61682;BME280;47577;43.610;25.010;2023-08-20T08:54:16;100652.34;;;31.49;38.22
61682;BME280;47577;43.610;25.010;2023-08-20T08:56:42;100650.09;;;31.76;38.67
61682;BME280;47577;43.610;25.010;2023-08-20T08:59:08;100649.22;;;31.61;35.94
61682;BME280;47577;43.610;25.010;2023-08-20T09:01:38;100652.59;;;31.86;39.25
61682;BME280;47577;43.610;25.010;2023-08-20T09:04:04;100652.06;;;32.05;37.20
61682;BME280;47577;43.610;25.010;2023-08-20T09:06:47;100650.38;;;32.04;38.27
61682;BME280;47577;43.610;25.010;2023-08-20T09:09:13;100650.91;;;32.23;38.51
61682;BME280;47577;43.610;25.010;2023-08-20T09:11:39;100649.03;;;32.38;37.47
61682;BME280;47577;43.610;25.010;2023-08-20T09:14:05;100642.81;;;32.21;35.09
61682;BME280;47577;43.610;25.010;2023-08-20T09:16:31;100648.88;;;32.17;36.69
61682;BME280;47577;43.610;25.010;2023-08-20T09:18:59;100648.44;;;32.28;38.06
61682;BME280;47577;43.610;25.010;2023-08-20T09:21:29;100644.94;;;32.34;37.21
61682;BME280;47577;43.610;25.010;2023-08-20T09:23:58;100644.63;;;32.59;36.58
61682;BME280;47577;43.610;25.010;2023-08-20T09:26:27;100647.09;;;32.54;38.30
61682;BME280;47577;43.610;25.010;2023-08-20T09:28:55;100652.34;;;32.78;37.03
61682;BME280;47577;43.610;25.010;2023-08-20T09:31:37;100642.41;;;32.63;34.48
61682;BME280;47577;43.610;25.010;2023-08-20T09:34:03;100631.22;;;32.64;37.10
61682;BME280;47577;43.610;25.010;2023-08-20T09:36:34;100642.41;;;32.77;35.12
61682;BME280;47577;43.610;25.010;2023-08-20T09:39:03;100635.94;;;32.85;34.87
61682;BME280;47577;43.610;25.010;2023-08-20T09:41:29;100638.97;;;32.90;34.68
61682;BME280;47577;43.610;25.010;2023-08-20T09:43:57;100635.91;;;33.00;34.05
61682;BME280;47577;43.610;25.010;2023-08-20T09:46:27;100635.31;;;33.05;33.62
61682;BME280;47577;43.610;25.010;2023-08-20T09:48:55;100631.72;;;33.19;34.69
61682;BME280;47577;43.610;25.010;2023-08-20T09:51:26;100621.78;;;33.25;34.51
61682;BME280;47577;43.610;25.010;2023-08-20T09:54:03;100624.03;;;33.36;32.89
61682;BME280;47577;43.610;25.010;2023-08-20T09:56:38;100619.09;;;33.31;31.75
61682;BME280;47577;43.610;25.010;2023-08-20T09:59:04;100619.22;;;33.45;32.79
61682;BME280;47577;43.610;25.010;2023-08-20T10:01:30;100627.78;;;33.72;31.68
61682;BME280;47577;43.610;25.010;2023-08-20T10:03:56;100611.81;;;33.67;31.92
61682;BME280;47577;43.610;25.010;2023-08-20T10:06:23;100614.69;;;33.80;30.31
61682;BME280;47577;43.610;25.010;2023-08-20T10:08:50;100609.34;;;33.72;29.06
61682;BME280;47577;43.610;25.010;2023-08-20T10:11:16;100618.19;;;33.89;31.39
61682;BME280;47577;43.610;25.010;2023-08-20T10:13:42;100613.16;;;33.99;32.36
61682;BME280;47577;43.610;25.010;2023-08-20T10:16:11;100618.28;;;34.02;30.50
61682;BME280;47577;43.610;25.010;2023-08-20T10:18:37;100615.72;;;34.01;30.31
61682;BME280;47577;43.610;25.010;2023-08-20T10:21:04;100614.91;;;34.07;31.91
61682;BME280;47577;43.610;25.010;2023-08-20T10:23:31;100610.22;;;34.01;31.54
61682;BME280;47577;43.610;25.010;2023-08-20T10:26:08;100607.84;;;33.98;32.68
61682;BME280;47577;43.610;25.010;2023-08-20T10:28:37;100609.03;;;34.17;32.52
61682;BME280;47577;43.610;25.010;2023-08-20T10:31:04;100607.19;;;34.24;32.06
61682;BME280;47577;43.610;25.010;2023-08-20T10:33:35;100607.50;;;34.36;32.46
61682;BME280;47577;43.610;25.010;2023-08-20T10:36:09;100608.88;;;34.60;31.88
61682;BME280;47577;43.610;25.010;2023-08-20T10:38:36;100597.25;;;34.71;33.35
61682;BME280;47577;43.610;25.010;2023-08-20T10:41:06;100603.50;;;34.80;30.80
61682;BME280;47577;43.610;25.010;2023-08-20T10:43:37;100600.34;;;34.96;31.78
61682;BME280;47577;43.610;25.010;2023-08-20T10:46:07;100596.75;;;35.03;32.80
61682;BME280;47577;43.610;25.010;2023-08-20T10:48:34;100585.94;;;35.14;31.49
61682;BME280;47577;43.610;25.010;2023-08-20T10:51:14;100598.97;;;35.27;32.43
61682;BME280;47577;43.610;25.010;2023-08-20T10:53:42;100591.94;;;35.25;32.09
61682;BME280;47577;43.610;25.010;2023-08-20T10:56:11;100590.25;;;35.30;31.23
61682;BME280;47577;43.610;25.010;2023-08-20T10:58:45;100580.06;;;35.31;30.75
61682;BME280;47577;43.610;25.010;2023-08-20T11:01:22;100577.94;;;35.40;32.07
61682;BME280;47577;43.610;25.010;2023-08-20T11:03:51;100585.38;;;35.39;30.95
61682;BME280;47577;43.610;25.010;2023-08-20T11:06:17;100568.72;;;35.06;29.98
61682;BME280;47577;43.610;25.010;2023-08-20T11:08:44;100561.50;;;35.11;31.70
61682;BME280;47577;43.610;25.010;2023-08-20T11:11:10;100572.19;;;35.28;32.72
61682;BME280;47577;43.610;25.010;2023-08-20T11:13:37;100569.22;;;35.29;30.71
61682;BME280;47577;43.610;25.010;2023-08-20T11:16:05;100562.41;;;35.52;31.94
61682;BME280;47577;43.610;25.010;2023-08-20T11:18:32;100551.56;;;35.57;30.70
61682;BME280;47577;43.610;25.010;2023-08-20T11:20:59;100554.38;;;35.77;30.65
61682;BME280;47577;43.610;25.010;2023-08-20T11:23:25;100543.53;;;35.76;30.74
61682;BME280;47577;43.610;25.010;2023-08-20T11:25:51;100534.78;;;35.65;30.79
61682;BME280;47577;43.610;25.010;2023-08-20T11:28:16;100533.53;;;35.48;30.11
61682;BME280;47577;43.610;25.010;2023-08-20T11:30:42;100543.50;;;35.62;30.45
61682;BME280;47577;43.610;25.010;2023-08-20T11:33:08;100534.97;;;35.57;30.79
61682;BME280;47577;43.610;25.010;2023-08-20T11:35:35;100530.75;;;35.75;29.94
61682;BME280;47577;43.610;25.010;2023-08-20T11:38:02;100523.94;;;35.84;32.31
61682;BME280;47577;43.610;25.010;2023-08-20T11:40:28;100522.19;;;36.03;31.01
61682;BME280;47577;43.610;25.010;2023-08-20T11:42:53;100516.38;;;36.31;29.54
61682;BME280;47577;43.610;25.010;2023-08-20T11:45:19;100509.72;;;36.46;28.61
61682;BME280;47577;43.610;25.010;2023-08-20T11:47:45;100512.50;;;36.46;30.41
61682;BME280;47577;43.610;25.010;2023-08-20T11:50:10;100513.72;;;36.56;29.54
61682;BME280;47577;43.610;25.010;2023-08-20T11:52:36;100516.00;;;36.73;29.04
61682;BME280;47577;43.610;25.010;2023-08-20T11:55:05;100506.38;;;36.75;29.73
61682;BME280;47577;43.610;25.010;2023-08-20T11:57:31;100506.38;;;36.75;29.52
61682;BME280;47577;43.610;25.010;2023-08-20T12:00:05;100498.91;;;36.83;29.08
61682;BME280;47577;43.610;25.010;2023-08-20T12:02:34;100485.91;;;36.83;27.02
61682;BME280;47577;43.610;25.010;2023-08-20T12:05:00;100477.91;;;36.62;26.68
61682;BME280;47577;43.610;25.010;2023-08-20T12:07:26;100479.56;;;36.69;28.65
61682;BME280;47577;43.610;25.010;2023-08-20T12:09:52;100485.28;;;36.81;28.36
61682;BME280;47577;43.610;25.010;2023-08-20T12:12:19;100479.69;;;36.88;28.37
61682;BME280;47577;43.610;25.010;2023-08-20T12:14:48;100480.84;;;37.05;28.66
61682;BME280;47577;43.610;25.010;2023-08-20T12:17:17;100479.78;;;37.06;26.39
61682;BME280;47577;43.610;25.010;2023-08-20T12:19:44;100477.47;;;36.96;26.80
61682;BME280;47577;43.610;25.010;2023-08-20T12:22:10;100465.09;;;36.67;27.01
61682;BME280;47577;43.610;25.010;2023-08-20T12:24:36;100462.25;;;36.42;26.31
61682;BME280;47577;43.610;25.010;2023-08-20T12:27:01;100461.63;;;36.85;28.91
61682;BME280;47577;43.610;25.010;2023-08-20T12:29:29;100455.69;;;37.07;28.67
61682;BME280;47577;43.610;25.010;2023-08-20T12:31:55;100463.88;;;36.95;26.44
61682;BME280;47577;43.610;25.010;2023-08-20T12:34:20;100447.25;;;36.95;28.01
61682;BME280;47577;43.610;25.010;2023-08-20T12:36:50;100457.19;;;36.77;27.81
61682;BME280;47577;43.610;25.010;2023-08-20T12:39:16;100453.81;;;37.01;27.34
61682;BME280;47577;43.610;25.010;2023-08-20T12:41:41;100449.16;;;36.94;26.22